Time;durP1;ratioP1;P1;durP2;ratioP2;P2;SDS_P1;SDS_P2;PMS_P1;PMS_P2;Temp;Humidity;BMP_temperature;BMP_pressure;BME280_temperature;BME280_humidity;BME280_pressure;Samples;Min_cycle;Max_cycle;Signal;HPM_P1;HPM_P2
2023/03/11 00:00:26;;;;;;;8.33;2.17;;;1.10;99.90;;;;;;5072189;28;20086;-50
2023/03/11 00:02:54;;;;;;;8.00;2.40;;;1.10;99.90;;;;;;5072707;28;20127;-50
2023/03/11 00:05:23;;;;;;;9.93;2.80;;;1.20;99.90;;;;;;5071900;28;20086;-49
2023/03/11 00:07:49;;;;;;;11.07;2.53;;;1.20;99.90;;;;;;5072330;28;20102;-53
2023/03/11 00:10:17;;;;;;;8.00;2.57;;;1.10;99.90;;;;;;5072143;28;20056;-49
2023/03/11 00:12:43;;;;;;;9.20;2.83;;;1.20;99.90;;;;;;5072123;28;20029;-51
2023/03/11 00:15:09;;;;;;;9.67;2.70;;;1.20;99.90;;;;;;5071837;28;20994;-51
2023/03/11 00:17:35;;;;;;;4.87;2.33;;;1.20;99.90;;;;;;5071744;28;20032;-49
2023/03/11 00:20:03;;;;;;;8.23;3.20;;;1.30;99.90;;;;;;5071824;28;20111;-52
2023/03/11 00:22:28;;;;;;;7.27;2.30;;;1.30;99.90;;;;;;5071849;28;20492;-49
2023/03/11 00:24:54;;;;;;;5.63;2.07;;;1.20;99.90;;;;;;5071558;28;20066;-50
2023/03/11 00:27:20;;;;;;;5.30;1.80;;;1.20;99.90;;;;;;5071672;28;20028;-52
2023/03/11 00:29:45;;;;;;;4.17;1.80;;;1.30;99.90;;;;;;5071744;28;20052;-50
2023/03/11 00:32:11;;;;;;;6.47;2.60;;;1.20;99.90;;;;;;5053656;28;20063;-51
2023/03/11 00:34:37;;;;;;;7.90;2.00;;;1.20;99.90;;;;;;5071418;28;20035;-52
2023/03/11 00:37:03;;;;;;;7.47;2.07;;;1.20;99.90;;;;;;5071457;28;20112;-49
2023/03/11 00:39:29;;;;;;;6.50;2.67;;;1.20;99.90;;;;;;5053617;28;20115;-49
2023/03/11 00:41:55;;;;;;;8.47;2.00;;;1.10;99.90;;;;;;5053551;28;20132;-53
2023/03/11 00:44:21;;;;;;;7.63;2.43;;;1.20;99.90;;;;;;5071118;28;20121;-51
2023/03/11 00:46:47;;;;;;;6.90;2.00;;;1.20;99.90;;;;;;5053279;28;20477;-55
2023/03/11 00:49:13;;;;;;;6.37;1.70;;;1.20;99.90;;;;;;5071322;28;20070;-53
2023/03/11 00:51:38;;;;;;;10.40;2.47;;;1.20;99.90;;;;;;5053358;28;20085;-52
2023/03/11 00:54:04;;;;;;;9.37;2.30;;;1.20;99.90;;;;;;5071208;28;20063;-50
2023/03/11 00:56:30;;;;;;;9.10;2.60;;;1.20;99.90;;;;;;5053235;28;20033;-52
2023/03/11 00:58:56;;;;;;;8.80;2.67;;;1.20;99.90;;;;;;5053083;28;20035;-49
2023/03/11 01:01:23;;;;;;;8.17;2.37;;;1.20;99.90;;;;;;5052993;28;20028;-53
2023/03/11 01:03:49;;;;;;;8.03;2.30;;;1.30;99.90;;;;;;5070620;28;20028;-53
2023/03/11 01:06:15;;;;;;;5.73;2.13;;;1.20;99.90;;;;;;5071248;28;20081;-51
2023/03/11 01:08:41;;;;;;;9.13;2.50;;;1.20;99.90;;;;;;5070882;28;20139;-53
2023/03/11 01:11:07;;;;;;;8.60;2.27;;;1.20;99.90;;;;;;5071016;28;20028;-53
2023/03/11 01:13:34;;;;;;;10.17;2.20;;;1.20;99.90;;;;;;5070649;28;20047;-53
2023/03/11 01:16:00;;;;;;;11.60;2.07;;;1.20;99.90;;;;;;5052920;28;20025;-53
2023/03/11 01:18:26;;;;;;;9.10;2.47;;;1.20;99.90;;;;;;5052836;28;20378;-53
2023/03/11 01:20:53;;;;;;;9.50;1.80;;;1.30;99.90;;;;;;5070690;28;20059;-50
2023/03/11 01:23:19;;;;;;;8.33;1.70;;;1.30;99.90;;;;;;5052570;28;20038;-50
2023/03/11 01:25:46;;;;;;;9.60;2.00;;;1.30;99.90;;;;;;5070835;28;20021;-53
2023/03/11 01:28:12;;;;;;;9.53;1.87;;;1.30;99.90;;;;;;5070449;28;20044;-51
2023/03/11 01:30:40;;;;;;;7.07;1.73;;;1.30;99.90;;;;;;5052613;28;20028;-51
2023/03/11 01:33:10;;;;;;;8.13;2.00;;;1.30;99.90;;;;;;5070706;28;20043;-50
2023/03/11 01:35:38;;;;;;;10.03;2.20;;;1.30;99.90;;;;;;5052394;28;20377;-52
2023/03/11 01:38:04;;;;;;;6.20;1.87;;;1.30;99.90;;;;;;5052359;28;20029;-50
2023/03/11 01:40:43;;;;;;;6.30;2.00;;;1.30;99.90;;;;;;5052419;28;20066;-51
2023/03/11 01:43:39;;;;;;;8.00;1.83;;;1.30;99.90;;;;;;5052453;28;20036;-49
2023/03/11 01:46:36;;;;;;;9.03;2.20;;;1.40;99.90;;;;;;5052606;28;20047;-49
2023/03/11 01:49:04;;;;;;;10.83;2.60;;;1.30;99.90;;;;;;5066462;28;20052;-49
2023/03/11 01:51:37;;;;;;;8.97;2.73;;;1.30;99.90;;;;;;5052506;28;20058;-52
2023/03/11 01:54:09;;;;;;;12.47;2.27;;;1.20;99.90;;;;;;5052020;28;20105;-51
2023/03/11 01:56:37;;;;;;;11.33;2.40;;;1.20;99.90;;;;;;5070750;28;20392;-51
2023/03/11 01:59:04;;;;;;;14.33;3.00;;;1.20;99.90;;;;;;5052346;28;20112;-49
2023/03/11 02:01:30;;;;;;;19.17;4.27;;;1.10;99.90;;;;;;5070287;28;20031;-52
2023/03/11 02:04:02;;;;;;;22.30;5.37;;;1.10;99.90;;;;;;5052085;28;20025;-51
2023/03/11 02:06:30;;;;;;;20.00;4.97;;;1.10;99.90;;;;;;5052124;28;20021;-51
2023/03/11 02:08:56;;;;;;;14.83;3.90;;;1.10;99.90;;;;;;5070290;28;20025;-52
2023/03/11 02:11:25;;;;;;;15.30;3.00;;;1.10;99.90;;;;;;5052241;28;20460;-52
2023/03/11 02:13:55;;;;;;;14.00;3.00;;;1.00;99.90;;;;;;5035655;28;20070;-51
2023/03/11 02:16:24;;;;;;;15.73;2.77;;;1.00;99.90;;;;;;5053571;28;20037;-53
2023/03/11 02:18:49;;;;;;;11.40;2.30;;;0.90;99.90;;;;;;5056403;28;20084;-54
2023/03/11 02:21:22;;;;;;;10.97;2.90;;;0.90;99.90;;;;;;5056154;28;20032;-52
2023/03/11 02:23:48;;;;;;;14.50;3.17;;;0.80;99.90;;;;;;5055952;28;20444;-52
2023/03/11 02:26:29;;;;;;;11.30;2.43;;;0.80;99.90;;;;;;5056135;28;20223;-51
2023/03/11 02:28:56;;;;;;;11.63;2.60;;;0.80;99.90;;;;;;5056199;28;20028;-52
2023/03/11 02:31:23;;;;;;;14.23;2.57;;;0.70;99.90;;;;;;5074129;28;20056;-50
2023/03/11 02:33:53;;;;;;;12.90;3.43;;;0.70;99.90;;;;;;5055768;28;20036;-50
2023/03/11 02:36:38;;;;;;;17.17;4.43;;;0.60;99.90;;;;;;5055767;28;20451;-50
2023/03/11 02:39:06;;;;;;;21.10;3.53;;;0.60;99.90;;;;;;5055875;28;20028;-51
2023/03/11 02:41:36;;;;;;;21.63;3.57;;;0.50;99.90;;;;;;5055618;28;20063;-52
2023/03/11 02:44:08;;;;;;;17.37;3.13;;;0.50;99.90;;;;;;5055634;28;20496;-51
2023/03/11 02:46:35;;;;;;;11.47;3.10;;;0.50;99.90;;;;;;5055846;28;20029;-51
2023/03/11 02:49:02;;;;;;;9.57;2.27;;;0.50;99.90;;;;;;5055751;28;20024;-53
2023/03/11 02:51:28;;;;;;;10.80;2.53;;;0.40;99.90;;;;;;5073729;28;20469;-52
2023/03/11 02:53:58;;;;;;;8.23;1.90;;;0.40;99.90;;;;;;5073222;28;20036;-49
2023/03/11 02:56:24;;;;;;;10.30;2.27;;;0.40;99.90;;;;;;5055511;28;20463;-48
2023/03/11 02:58:50;;;;;;;9.97;2.10;;;0.30;99.90;;;;;;5055631;28;20059;-49
2023/03/11 03:01:16;;;;;;;9.23;2.03;;;0.30;99.90;;;;;;5055404;28;20520;-52
2023/03/11 03:03:43;;;;;;;6.73;1.60;;;0.30;99.90;;;;;;5055226;28;20031;-50
2023/03/11 03:06:10;;;;;;;9.67;1.90;;;0.30;99.90;;;;;;5055401;28;20059;-51
2023/03/11 03:08:36;;;;;;;6.80;2.37;;;0.30;99.90;;;;;;5055056;28;20058;-52
2023/03/11 03:11:03;;;;;;;12.67;2.23;;;0.30;99.90;;;;;;5055349;28;20043;-48
2023/03/11 03:13:29;;;;;;;16.87;2.03;;;0.30;99.90;;;;;;5055197;28;20396;-53
2023/03/11 03:15:55;;;;;;;11.27;1.80;;;0.20;99.90;;;;;;5055327;28;20028;-52
2023/03/11 03:18:21;;;;;;;7.73;1.73;;;0.20;99.90;;;;;;5073073;28;20408;-52
2023/03/11 03:20:47;;;;;;;9.30;2.00;;;0.20;99.90;;;;;;5055169;28;20094;-51
2023/03/11 03:23:15;;;;;;;14.90;2.10;;;0.20;99.90;;;;;;5055202;28;20029;-53
2023/03/11 03:25:42;;;;;;;4.90;1.63;;;0.20;99.90;;;;;;5073088;28;20112;-52
2023/03/11 03:28:10;;;;;;;7.53;1.53;;;0.20;99.90;;;;;;5054646;28;20497;-53
2023/03/11 03:30:38;;;;;;;12.88;2.00;;;0.20;99.90;;;;;;5055045;28;20024;-52
2023/03/11 03:33:04;;;;;;;10.47;1.73;;;0.20;99.90;;;;;;5055152;28;20443;-52
2023/03/11 03:35:31;;;;;;;14.93;1.43;;;0.20;99.90;;;;;;5072548;28;20511;-50
2023/03/11 03:38:07;;;;;;;5.37;1.73;;;0.20;99.90;;;;;;5054671;28;20029;-52
2023/03/11 03:40:33;;;;;;;8.87;1.70;;;0.20;99.90;;;;;;5054700;28;20032;-52
2023/03/11 03:43:02;;;;;;;9.10;1.50;;;0.20;99.90;;;;;;5054918;28;20112;-50
2023/03/11 03:45:30;;;;;;;7.60;1.53;;;0.20;99.90;;;;;;5054460;28;20029;-50
2023/03/11 03:47:56;;;;;;;9.10;2.03;;;0.20;99.90;;;;;;5054399;28;20025;-51
2023/03/11 03:50:24;;;;;;;6.80;1.40;;;0.20;99.90;;;;;;5054574;28;20330;-52
2023/03/11 03:52:52;;;;;;;7.57;1.60;;;0.20;99.90;;;;;;5054529;28;20115;-51
2023/03/11 03:55:19;;;;;;;9.33;1.70;;;0.10;99.90;;;;;;5054214;28;20130;-49
2023/03/11 03:57:45;;;;;;;9.67;1.60;;;0.10;99.90;;;;;;5054277;28;20113;-50
2023/03/11 04:00:13;;;;;;;9.47;1.73;;;0.10;99.90;;;;;;5054331;28;20035;-52
2023/03/11 04:02:44;;;;;;;5.53;1.50;;;0.20;99.90;;;;;;5054544;28;20525;-49
2023/03/11 04:05:20;;;;;;;7.77;1.73;;;0.20;99.90;;;;;;5054151;28;20024;-52
2023/03/11 04:07:45;;;;;;;8.03;1.60;;;0.10;99.90;;;;;;5054053;28;20115;-49
2023/03/11 04:10:13;;;;;;;10.70;1.80;;;0.10;99.90;;;;;;5054249;28;20032;-50
2023/03/11 04:12:40;;;;;;;8.55;2.15;;;0.10;99.90;;;;;;5054234;28;20505;-52
2023/03/11 04:15:07;;;;;;;14.27;2.40;;;0.10;99.90;;;;;;5053905;28;20056;-51
2023/03/11 04:17:35;;;;;;;11.60;2.53;;;0.00;99.90;;;;;;5053972;28;20032;-51
2023/03/11 04:20:01;;;;;;;9.63;2.77;;;0.00;99.90;;;;;;5053910;28;20154;-52
2023/03/11 04:22:27;;;;;;;11.97;2.20;;;0.00;99.90;;;;;;5054050;28;20521;-52
2023/03/11 04:24:53;;;;;;;9.60;2.20;;;0.00;99.90;;;;;;5053781;28;20442;-52
2023/03/11 04:27:18;;;;;;;13.70;2.03;;;0.00;99.90;;;;;;5053758;28;20393;-49
2023/03/11 04:29:44;;;;;;;7.83;2.47;;;-0.10;99.90;;;;;;5053731;28;20028;-52
2023/03/11 04:32:10;;;;;;;14.70;2.10;;;-0.10;99.90;;;;;;5071883;28;20032;-50
2023/03/11 04:34:37;;;;;;;7.20;1.77;;;-0.10;99.90;;;;;;5053602;28;20082;-53
2023/03/11 04:37:03;;;;;;;14.93;2.77;;;-0.10;99.90;;;;;;5053552;28;20028;-51
2023/03/11 04:39:32;;;;;;;10.10;2.28;;;-0.10;99.90;;;;;;5053108;28;20041;-52
2023/03/11 04:41:58;;;;;;;15.43;3.10;;;-0.10;99.90;;;;;;5071673;28;20048;-52
2023/03/11 04:44:25;;;;;;;14.27;2.60;;;-0.10;99.90;;;;;;5053402;28;20035;-51
2023/03/11 04:46:51;;;;;;;15.67;2.60;;;-0.20;99.90;;;;;;5071451;28;20380;-52
2023/03/11 04:49:17;;;;;;;11.23;2.83;;;-0.20;99.90;;;;;;5053492;28;20031;-49
2023/03/11 04:51:44;;;;;;;13.47;3.30;;;-0.20;99.90;;;;;;5053743;28;20040;-49
2023/03/11 04:54:11;;;;;;;13.03;3.27;;;-0.30;99.90;;;;;;5066596;22;20020;-48
2023/03/11 04:56:37;;;;;;;12.17;3.23;;;-0.30;99.90;;;;;;5052895;28;20101;-50
2023/03/11 04:59:05;;;;;;;8.23;2.60;;;-0.30;99.90;;;;;;5053578;28;20500;-51
2023/03/11 05:01:33;;;;;;;14.77;2.87;;;-0.30;99.90;;;;;;5053650;28;20078;-48
2023/03/11 05:04:02;;;;;;;11.55;2.22;;;-0.20;99.90;;;;;;5055162;28;20021;-50
2023/03/11 05:06:28;;;;;;;13.57;2.33;;;-0.20;99.90;;;;;;5091983;28;20028;-50
2023/03/11 05:08:54;;;;;;;11.40;2.10;;;-0.20;99.90;;;;;;5073313;28;20031;-52
2023/03/11 05:11:20;;;;;;;9.63;2.10;;;-0.20;99.90;;;;;;5073370;28;20614;-54
2023/03/11 05:13:47;;;;;;;9.87;1.90;;;-0.10;99.90;;;;;;5073157;28;20028;-54
2023/03/11 05:16:12;;;;;;;7.20;1.63;;;-0.10;99.90;;;;;;5073256;28;20039;-53
2023/03/11 05:18:38;;;;;;;10.83;2.00;;;-0.10;99.90;;;;;;5091204;28;20548;-54
2023/03/11 05:21:05;;;;;;;13.23;2.50;;;-0.10;99.90;;;;;;5073306;28;20389;-50
2023/03/11 05:23:33;;;;;;;14.27;2.47;;;0.00;99.90;;;;;;5073527;28;20131;-52
2023/03/11 05:26:00;;;;;;;8.03;2.20;;;0.00;99.90;;;;;;5073714;28;20024;-51
2023/03/11 05:28:26;;;;;;;9.20;2.07;;;0.00;99.90;;;;;;5072460;28;20020;-52
2023/03/11 05:30:53;;;;;;;11.40;1.93;;;0.00;99.90;;;;;;5073429;28;20024;-50
2023/03/11 05:33:20;;;;;;;8.37;1.80;;;0.00;99.90;;;;;;5073492;28;20035;-53
2023/03/11 05:35:46;;;;;;;10.53;2.13;;;0.10;99.90;;;;;;5073031;28;20090;-53
2023/03/11 05:38:13;;;;;;;10.73;2.03;;;0.00;99.90;;;;;;5072942;28;20028;-52
2023/03/11 05:40:39;;;;;;;16.20;2.83;;;0.00;99.90;;;;;;5073023;28;20059;-51
2023/03/11 05:43:04;;;;;;;14.40;3.70;;;0.10;99.90;;;;;;5091146;28;20017;-50
2023/03/11 05:45:34;;;;;;;11.47;3.30;;;0.10;99.90;;;;;;5072803;28;20445;-53
2023/03/11 05:48:01;;;;;;;11.70;3.40;;;0.10;99.90;;;;;;5072759;28;20085;-53
2023/03/11 05:50:28;;;;;;;12.80;3.37;;;0.10;99.90;;;;;;5072000;28;20028;-48
2023/03/11 05:52:54;;;;;;;15.80;3.47;;;0.10;99.90;;;;;;5072965;28;20036;-53
2023/03/11 05:55:21;;;;;;;18.17;3.23;;;0.10;99.90;;;;;;5072489;28;20065;-54
2023/03/11 05:57:50;;;;;;;14.27;3.17;;;0.10;99.90;;;;;;5072769;28;20093;-54
2023/03/11 06:00:17;;;;;;;15.50;3.70;;;0.20;99.90;;;;;;5072705;28;20118;-50
2023/03/11 06:02:48;;;;;;;14.13;3.00;;;0.20;99.90;;;;;;5072918;28;20388;-52
2023/03/11 06:05:16;;;;;;;13.77;2.90;;;0.20;99.90;;;;;;5072495;28;20522;-48
2023/03/11 06:07:44;;;;;;;11.30;3.20;;;0.20;99.90;;;;;;5072506;28;20136;-49
2023/03/11 06:10:10;;;;;;;11.10;3.30;;;0.10;99.90;;;;;;5072740;28;20090;-52
2023/03/11 06:12:37;;;;;;;9.40;2.33;;;0.20;99.90;;;;;;5072746;28;20032;-50
2023/03/11 06:15:18;;;;;;;9.33;2.80;;;0.20;99.90;;;;;;5072578;28;20039;-53
2023/03/11 06:17:44;;;;;;;13.03;2.60;;;0.30;99.90;;;;;;5072510;28;20492;-48
2023/03/11 06:20:11;;;;;;;12.10;2.30;;;0.30;99.90;;;;;;5072614;28;20071;-53
2023/03/11 06:22:37;;;;;;;10.60;2.23;;;0.30;99.90;;;;;;5090826;28;20384;-48
2023/03/11 06:25:02;;;;;;;6.50;2.03;;;0.30;99.90;;;;;;5090512;28;20028;-53
2023/03/11 06:27:30;;;;;;;13.17;2.00;;;0.40;99.90;;;;;;5072416;28;20483;-50
2023/03/11 06:29:56;;;;;;;14.63;2.10;;;0.40;99.90;;;;;;5072542;28;20055;-52
2023/03/11 06:32:23;;;;;;;7.53;2.07;;;0.30;99.90;;;;;;5072589;28;20031;-51
2023/03/11 06:34:51;;;;;;;8.93;1.93;;;0.30;99.90;;;;;;5072199;28;20034;-54
2023/03/11 06:37:17;;;;;;;7.73;2.00;;;0.30;99.90;;;;;;5090419;28;20488;-52
2023/03/11 06:39:43;;;;;;;11.33;2.40;;;0.30;99.90;;;;;;5090640;28;20042;-49
2023/03/11 06:42:13;;;;;;;10.57;1.97;;;0.20;99.90;;;;;;5072632;28;20024;-49
2023/03/11 06:44:41;;;;;;;8.60;2.00;;;0.30;99.90;;;;;;5072169;28;20427;-48
2023/03/11 06:47:07;;;;;;;13.80;2.20;;;0.30;99.90;;;;;;5072232;28;20020;-52
2023/03/11 06:49:33;;;;;;;7.90;1.90;;;0.30;99.90;;;;;;5072199;28;20111;-52
2023/03/11 06:51:59;;;;;;;13.87;1.90;;;0.30;99.90;;;;;;5072418;28;20036;-51
2023/03/11 06:54:25;;;;;;;9.40;2.10;;;0.20;99.90;;;;;;5072148;28;20032;-51
2023/03/11 06:56:51;;;;;;;8.23;2.17;;;0.10;99.90;;;;;;5072441;28;20028;-51
2023/03/11 06:59:18;;;;;;;9.27;2.37;;;0.10;99.90;;;;;;5072446;28;20028;-49
2023/03/11 07:01:44;;;;;;;9.03;2.73;;;0.10;99.90;;;;;;5072643;28;20424;-52
2023/03/11 07:04:09;;;;;;;12.17;2.73;;;0.00;99.90;;;;;;5093756;28;20028;-51
2023/03/11 07:06:37;;;;;;;8.40;2.40;;;0.10;99.90;;;;;;5075846;28;20388;-53
2023/03/11 07:09:21;;;;;;;8.23;2.40;;;0.20;99.90;;;;;;5075841;28;20031;-52
2023/03/11 07:11:47;;;;;;;8.40;1.93;;;0.30;99.90;;;;;;5075823;28;20068;-53
2023/03/11 07:14:19;;;;;;;9.90;2.10;;;0.40;99.90;;;;;;5075545;28;20032;-49
2023/03/11 07:16:50;;;;;;;9.40;2.47;;;0.50;99.90;;;;;;5075480;28;20032;-49
2023/03/11 07:19:36;;;;;;;6.27;2.10;;;0.60;99.90;;;;;;5093326;28;20492;-49
2023/03/11 07:22:01;;;;;;;7.53;2.00;;;0.90;99.90;;;;;;5093741;28;20036;-51
2023/03/11 07:24:27;;;;;;;6.90;2.13;;;1.10;99.90;;;;;;5093535;28;20024;-50
2023/03/11 07:26:53;;;;;;;8.93;2.17;;;1.20;99.90;;;;;;5093490;28;20369;-52
2023/03/11 07:29:19;;;;;;;8.13;2.53;;;1.40;99.90;;;;;;5093691;28;20039;-49
2023/03/11 07:31:45;;;;;;;10.47;2.87;;;1.80;99.90;;;;;;5093737;28;20441;-50
2023/03/11 07:34:11;;;;;;;8.20;2.73;;;2.20;99.90;;;;;;5093231;28;20106;-56
2023/03/11 07:36:41;;;;;;;9.33;2.50;;;2.50;99.90;;;;;;5093262;28;20024;-50
2023/03/11 07:39:07;;;;;;;8.20;2.03;;;2.80;99.90;;;;;;5093362;28;20028;-50
2023/03/11 07:41:34;;;;;;;7.63;2.30;;;2.80;99.90;;;;;;5093267;28;20434;-51
2023/03/11 07:44:01;;;;;;;7.60;2.00;;;3.00;99.90;;;;;;5093189;28;20080;-52
2023/03/11 07:46:28;;;;;;;12.93;2.40;;;3.10;99.90;;;;;;5093208;28;20024;-53
2023/03/11 07:48:54;;;;;;;12.47;3.43;;;3.30;99.90;;;;;;5093138;28;20020;-53
2023/03/11 07:51:26;;;;;;;8.10;2.63;;;3.40;99.90;;;;;;5093219;28;20032;-51
2023/03/11 07:53:53;;;;;;;8.97;2.33;;;3.30;99.90;;;;;;5092782;28;20063;-53
2023/03/11 07:56:22;;;;;;;12.13;3.17;;;3.60;99.90;;;;;;5092693;28;20511;-50
2023/03/11 07:58:48;;;;;;;8.85;2.65;;;4.00;99.90;;;;;;5092956;28;20452;-52
2023/03/11 08:01:16;;;;;;;12.93;2.90;;;4.20;99.90;;;;;;5092727;28;20056;-52
2023/03/11 08:03:44;;;;;;;13.80;3.27;;;4.30;99.90;;;;;;5092520;28;20032;-51
2023/03/11 08:06:20;;;;;;;8.87;2.63;;;4.60;99.90;;;;;;5092613;28;20058;-55
2023/03/11 08:08:47;;;;;;;11.00;2.73;;;4.30;99.90;;;;;;5092519;28;20538;-51
2023/03/11 08:11:14;;;;;;;13.43;4.00;;;4.10;99.90;;;;;;5092742;28;20024;-53
2023/03/11 08:13:41;;;;;;;12.43;2.80;;;4.10;99.90;;;;;;5091284;28;20032;-50
2023/03/11 08:16:08;;;;;;;9.63;2.50;;;4.00;99.90;;;;;;5092385;28;20047;-53
2023/03/11 08:18:34;;;;;;;7.37;2.77;;;4.00;99.90;;;;;;5074131;28;20462;-54
2023/03/11 08:21:07;;;;;;;6.80;2.33;;;3.90;99.90;;;;;;5092306;28;20024;-50
2023/03/11 08:23:34;;;;;;;11.97;2.20;;;4.00;99.90;;;;;;5092273;28;20032;-51
2023/03/11 08:26:07;;;;;;;10.67;2.77;;;4.10;99.90;;;;;;5092094;28;20035;-50
2023/03/11 08:28:33;;;;;;;8.73;1.97;;;4.40;99.90;;;;;;5092166;28;20093;-53
2023/03/11 08:30:59;;;;;;;7.77;2.17;;;4.70;99.90;;;;;;5092108;28;20032;-49
2023/03/11 08:33:24;;;;;;;5.90;1.73;;;4.90;99.90;;;;;;5091856;28;20392;-51
2023/03/11 08:35:50;;;;;;;7.30;2.10;;;5.20;99.90;;;;;;5091938;28;20036;-54
2023/03/11 08:38:16;;;;;;;7.20;2.17;;;5.60;99.90;;;;;;5091834;28;20029;-52
2023/03/11 08:40:41;;;;;;;11.47;2.67;;;5.90;99.90;;;;;;5091800;28;20600;-54
2023/03/11 08:43:10;;;;;;;8.70;2.20;;;6.10;99.90;;;;;;5091927;28;20055;-52
2023/03/11 08:45:39;;;;;;;8.32;1.95;;;6.50;99.90;;;;;;5091561;28;20057;-50
2023/03/11 08:48:04;;;;;;;10.90;2.97;;;6.70;99.90;;;;;;5091629;28;20032;-52
2023/03/11 08:50:30;;;;;;;6.30;1.57;;;6.70;99.90;;;;;;5091763;28;20063;-53
2023/03/11 08:52:59;;;;;;;5.67;1.70;;;6.50;99.90;;;;;;5091875;28;20066;-52
2023/03/11 08:55:27;;;;;;;6.53;1.60;;;6.50;99.90;;;;;;5091187;28;20040;-51
2023/03/11 08:57:53;;;;;;;8.97;1.90;;;6.10;99.90;;;;;;5091472;28;20110;-53
2023/03/11 09:00:19;;;;;;;9.83;2.17;;;5.90;99.90;;;;;;5091349;28;20039;-52
2023/03/11 09:02:45;;;;;;;13.93;1.80;;;5.70;99.90;;;;;;5091342;28;20036;-52
2023/03/11 09:05:10;;;;;;;6.20;1.33;;;5.80;99.90;;;;;;5091227;28;20035;-53
2023/03/11 09:07:36;;;;;;;5.30;1.47;;;5.90;99.90;;;;;;5091313;28;20032;-50
2023/03/11 09:10:03;;;;;;;6.43;1.30;;;5.90;99.90;;;;;;5091429;28;20119;-52
2023/03/11 09:12:29;;;;;;;7.63;1.90;;;5.90;99.90;;;;;;5091529;28;20437;-54
2023/03/11 09:14:55;;;;;;;6.27;1.20;;;5.70;99.90;;;;;;5091038;28;20024;-49
2023/03/11 09:17:21;;;;;;;4.80;1.40;;;5.60;99.90;;;;;;5091181;28;20115;-50
2023/03/11 09:19:47;;;;;;;5.10;1.40;;;5.40;99.90;;;;;;5091460;28;20040;-53
2023/03/11 09:22:13;;;;;;;9.83;1.50;;;4.80;99.90;;;;;;5091248;28;20035;-56
2023/03/11 09:24:38;;;;;;;6.60;1.40;;;4.60;99.90;;;;;;5090848;28;20468;-53
2023/03/11 09:27:04;;;;;;;6.87;1.70;;;4.60;99.90;;;;;;5090965;28;20104;-53
2023/03/11 09:29:30;;;;;;;4.77;1.33;;;4.40;99.90;;;;;;5091043;28;20127;-54
2023/03/11 09:31:56;;;;;;;8.83;1.90;;;4.40;99.90;;;;;;5091016;28;20482;-50
2023/03/11 09:34:22;;;;;;;5.10;1.50;;;5.00;99.90;;;;;;5090750;28;20054;-52
2023/03/11 09:36:47;;;;;;;6.47;1.30;;;5.70;99.90;;;;;;5090868;28;20507;-49
2023/03/11 09:39:13;;;;;;;6.77;1.10;;;6.40;99.90;;;;;;5090951;28;20088;-51
2023/03/11 09:41:53;;;;;;;5.20;1.37;;;7.30;98.90;;;;;;5090971;28;20032;-51
2023/03/11 09:44:32;;;;;;;3.77;1.00;;;7.90;94.70;;;;;;5090627;28;20033;-51
2023/03/11 09:47:17;;;;;;;3.72;1.00;;;7.80;93.50;;;;;;5090735;28;20106;-50
2023/03/11 09:50:05;;;;;;;7.00;1.20;;;7.40;91.40;;;;;;5090895;28;20236;-52
2023/03/11 09:52:44;;;;;;;7.73;1.20;;;7.90;90.90;;;;;;5090906;28;20265;-54
2023/03/11 09:55:32;;;;;;;6.53;1.70;;;9.00;91.70;;;;;;5090321;28;20036;-53
2023/03/11 09:58:01;;;;;;;8.80;2.33;;;9.50;89.00;;;;;;5090521;28;20035;-54
2023/03/11 10:00:27;;;;;;;7.20;1.58;;;9.80;89.70;;;;;;5090659;28;20126;-54
2023/03/11 10:02:54;;;;;;;7.53;1.80;;;9.30;85.30;;;;;;5090722;28;20063;-52
2023/03/11 10:05:24;;;;;;;9.00;2.15;;;8.80;89.30;;;;;;5090311;28;20035;-53
2023/03/11 10:08:16;;;;;;;6.68;2.53;;;9.00;86.90;;;;;;5090430;28;20035;-54
2023/03/11 10:10:49;;;;;;;6.38;2.17;;;9.50;83.80;;;;;;5090543;28;20028;-53
2023/03/11 10:13:37;;;;;;;7.88;1.98;;;10.10;84.10;;;;;;5090557;28;20089;-55
2023/03/11 10:16:26;;;;;;;10.17;1.70;;;10.20;77.60;;;;;;5090400;28;20028;-53
2023/03/11 10:19:13;;;;;;;5.85;1.58;;;8.80;80.90;;;;;;5090496;28;20107;-51
2023/03/11 10:22:03;;;;;;;5.20;1.70;;;9.70;79.30;;;;;;5090499;28;20036;-53
2023/03/11 10:24:53;;;;;;;6.82;1.48;;;9.70;83.50;;;;;;5090585;28;20031;-50
2023/03/11 10:27:27;;;;;;;6.95;1.50;;;9.70;79.40;;;;;;5090209;28;20103;-51
2023/03/11 10:30:10;;;;;;;4.35;1.65;;;9.30;79.30;;;;;;5090376;28;20039;-49
2023/03/11 10:32:41;;;;;;;7.13;1.48;;;9.80;82.20;;;;;;5090236;28;20024;-52
2023/03/11 10:35:22;;;;;;;6.18;1.23;;;10.20;81.10;;;;;;5090184;28;20036;-52
2023/03/11 10:38:02;;;;;;;6.75;1.33;;;10.80;79.40;;;;;;5092280;28;20028;-52
2023/03/11 10:40:34;;;;;;;7.15;1.48;;;10.70;74.20;;;;;;5094240;28;20450;-51
2023/03/11 10:43:04;;;;;;;9.40;1.40;;;10.60;78.50;;;;;;5094021;28;20020;-52
2023/03/11 10:45:40;;;;;;;5.10;1.73;;;9.70;76.40;;;;;;5094026;28;20036;-50
2023/03/11 10:48:14;;;;;;;3.70;1.00;;;8.90;78.70;;;;;;5093912;28;20032;-53
2023/03/11 10:50:57;;;;;;;7.65;1.45;;;8.00;80.10;;;;;;5093988;28;20031;-51
2023/03/11 10:53:23;;;;;;;7.05;1.20;;;7.60;84.80;;;;;;5093706;28;20036;-53
2023/03/11 10:55:51;;;;;;;6.80;1.33;;;7.50;82.50;;;;;;5077361;22;20044;-53
2023/03/11 10:58:28;;;;;;;9.47;1.30;;;7.70;85.60;;;;;;5073478;28;20424;-54
2023/03/11 11:01:16;;;;;;;9.20;1.60;;;8.20;85.20;;;;;;5073491;28;20128;-54
2023/03/11 11:03:46;;;;;;;5.60;1.15;;;9.00;77.50;;;;;;5073650;28;20029;-53
2023/03/11 11:06:28;;;;;;;8.15;1.30;;;9.00;78.90;;;;;;5090280;28;20060;-53
2023/03/11 11:09:18;;;;;;;3.88;1.38;;;8.60;78.20;;;;;;5093875;28;20437;-52
2023/03/11 11:12:14;;;;;;;5.75;1.40;;;8.40;78.10;;;;;;5093910;28;20043;-56
2023/03/11 11:14:48;;;;;;;4.40;1.23;;;7.60;78.90;;;;;;5093656;28;20032;-56
2023/03/11 11:17:23;;;;;;;8.13;1.40;;;7.70;84.60;;;;;;5093500;28;20036;-54
2023/03/11 11:19:51;;;;;;;6.40;1.57;;;7.70;81.90;;;;;;5075292;28;20491;-55
2023/03/11 11:22:20;;;;;;;7.10;1.30;;;7.80;82.90;;;;;;5093638;28;20043;-55
2023/03/11 11:24:47;;;;;;;4.05;1.20;;;7.40;81.70;;;;;;5093364;28;20514;-55
2023/03/11 11:27:21;;;;;;;4.83;1.23;;;7.00;79.60;;;;;;5093618;28;20178;-56
2023/03/11 11:30:11;;;;;;;5.30;1.40;;;6.60;80.50;;;;;;5093308;28;20028;-56
2023/03/11 11:32:37;;;;;;;7.37;1.77;;;6.70;85.60;;;;;;5093574;28;20028;-56
2023/03/11 11:35:14;;;;;;;5.03;1.40;;;6.90;84.30;;;;;;5093184;28;20540;-55
2023/03/11 11:38:01;;;;;;;7.20;1.40;;;6.90;84.70;;;;;;5093060;28;20035;-56
2023/03/11 11:40:31;;;;;;;5.70;1.50;;;7.60;86.70;;;;;;5092991;28;20020;-51
2023/03/11 11:43:06;;;;;;;4.93;1.30;;;8.60;81.10;;;;;;5093020;28;20110;-53
2023/03/11 11:45:41;;;;;;;7.20;1.50;;;8.70;77.80;;;;;;5074647;28;20028;-53
2023/03/11 11:48:12;;;;;;;3.92;1.10;;;9.40;77.90;;;;;;5092838;28;20039;-54
2023/03/11 11:50:50;;;;;;;5.53;1.42;;;9.80;74.40;;;;;;5092941;28;20051;-53
2023/03/11 11:53:24;;;;;;;6.50;1.90;;;10.20;73.20;;;;;;5092897;28;20067;-55
2023/03/11 11:55:52;;;;;;;6.40;1.50;;;10.60;73.50;;;;;;5092615;28;20040;-53
2023/03/11 11:58:20;;;;;;;6.22;1.52;;;10.50;71.70;;;;;;5092554;28;20040;-54
2023/03/11 12:01:02;;;;;;;9.50;2.15;;;9.60;71.40;;;;;;5092745;28;20059;-53
2023/03/11 12:03:51;;;;;;;7.38;2.42;;;9.70;73.40;;;;;;5092585;28;20434;-54
2023/03/11 12:06:31;;;;;;;10.98;2.50;;;9.00;71.10;;;;;;5092527;28;20067;-54
2023/03/11 12:09:09;;;;;;;10.23;2.27;;;7.90;72.40;;;;;;5092528;28;20042;-53
2023/03/11 12:11:40;;;;;;;7.73;2.33;;;7.70;75.10;;;;;;5092456;28;20422;-55
2023/03/11 12:14:10;;;;;;;11.50;2.57;;;7.50;78.50;;;;;;5092226;28;20036;-54
2023/03/11 12:16:59;;;;;;;3.87;1.00;;;7.70;77.50;;;;;;5092445;28;20030;-52
2023/03/11 12:19:55;;;;;;;5.20;1.20;;;7.80;73.80;;;;;;5092241;28;20392;-54
2023/03/11 12:22:59;;;;;;;6.73;1.63;;;7.60;76.90;;;;;;5070252;28;20472;-53
2023/03/11 12:25:25;;;;;;;6.13;1.40;;;7.60;76.50;;;;;;5091333;28;20036;-54
2023/03/11 12:28:02;;;;;;;14.67;2.47;;;7.50;77.60;;;;;;5092025;28;20496;-53
2023/03/11 12:30:44;;;;;;;8.27;2.07;;;7.80;79.00;;;;;;5092138;28;20035;-54
2023/03/11 12:33:26;;;;;;;9.93;2.70;;;7.90;75.20;;;;;;5092003;28;20034;-52
2023/03/11 12:35:55;;;;;;;8.93;2.40;;;8.00;76.40;;;;;;5092081;28;20170;-53
2023/03/11 12:38:45;;;;;;;14.43;3.05;;;8.20;74.60;;;;;;5091797;28;20100;-53
2023/03/11 12:41:13;;;;;;;;;;;8.70;76.00;;;;;;5074228;28;20027;-51
2023/03/11 12:43:39;;;;;;;5.88;1.60;;;9.10;77.10;;;;;;5091982;28;19931;-55
2023/03/11 12:46:13;;;;;;;4.03;1.30;;;9.60;74.10;;;;;;5091772;28;20020;-54
2023/03/11 12:49:05;;;;;;;7.07;1.60;;;10.50;70.60;;;;;;5091561;28;20028;-55
2023/03/11 12:51:36;;;;;;;5.55;1.70;;;10.30;67.90;;;;;;5091679;28;20038;-54
2023/03/11 12:54:26;;;;;;;3.35;1.02;;;10.20;74.00;;;;;;5091633;28;20066;-55
2023/03/11 12:57:14;;;;;;;5.30;1.20;;;10.50;70.70;;;;;;5091520;28;20089;-55
2023/03/11 12:59:46;;;;;;;4.43;1.30;;;10.70;70.00;;;;;;5076378;28;20115;-55
2023/03/11 13:02:41;;;;;;;13.55;3.00;;;11.20;70.20;;;;;;5091730;28;20403;-55
2023/03/11 13:05:34;;;;;;;14.65;3.80;;;10.90;71.20;;;;;;5091575;28;20111;-54
2023/03/11 13:08:14;;;;;;;14.93;3.50;;;11.00;70.60;;;;;;5073179;28;20480;-55